Time;durP1;ratioP1;P1;durP2;ratioP2;P2;SDS_P1;SDS_P2;PMS_P1;PMS_P2;Temp;Humidity;BMP_temperature;BMP_pressure;BME280_temperature;BME280_humidity;BME280_pressure;Samples;Min_cycle;Max_cycle;Signal;HPM_P1;HPM_P2
2024/01/31 00:00:31;;;;;;;13.40;6.50;;;;;;;12.04;56.25;102808.78;102774;1288;61122;-50
2024/01/31 00:02:56;;;;;;;13.80;6.40;;;;;;;12.04;56.33;102807.20;103019;1289;61252;-49
2024/01/31 00:05:22;;;;;;;12.80;6.80;;;;;;;12.03;56.24;102803.55;102870;1291;61212;-51
2024/01/31 00:07:48;;;;;;;12.80;6.70;;;;;;;12.03;56.30;102803.21;102832;1290;61225;-52
2024/01/31 00:10:14;;;;;;;13.10;6.20;;;;;;;12.02;56.27;102798.97;102590;1294;62918;-52
2024/01/31 00:12:39;;;;;;;13.90;7.10;;;;;;;12.02;56.21;102801.30;103154;1289;61231;-52
2024/01/31 00:15:06;;;;;;;14.80;6.70;;;;;;;12.02;56.28;102797.56;102941;1290;60464;-50
2024/01/31 00:17:31;;;;;;;15.80;6.30;;;;;;;12.01;56.24;102796.12;102860;1293;60396;-48
2024/01/31 00:19:57;;;;;;;14.40;6.60;;;;;;;12.01;56.15;102797.79;103089;1287;61387;-52
2024/01/31 00:22:22;;;;;;;13.50;6.40;;;;;;;12.00;56.20;102795.11;102615;1290;61106;-48
2024/01/31 00:24:48;;;;;;;12.50;6.10;;;;;;;12.00;56.22;102796.65;102840;1290;61343;-51
2024/01/31 00:27:13;;;;;;;12.50;6.20;;;;;;;11.99;56.21;102795.23;102999;1287;61176;-49
2024/01/31 00:29:38;;;;;;;13.00;6.40;;;;;;;11.99;56.23;102792.58;102974;1288;61193;-52
2024/01/31 00:32:05;;;;;;;13.60;6.60;;;;;;;11.99;56.13;102792.95;102715;1291;61095;-51
2024/01/31 00:34:31;;;;;;;14.40;7.00;;;;;;;11.98;56.18;102791.05;102832;1294;60822;-50
2024/01/31 00:40:31;;;;;;;12.20;6.60;;;;;;;12.01;56.13;102795.95;102951;1288;601036;-52
2024/01/31 00:42:56;;;;;;;12.00;6.40;;;;;;;11.99;56.12;102796.11;103101;1288;60426;-52
2024/01/31 00:45:23;;;;;;;12.70;6.40;;;;;;;12.00;56.05;102795.86;102683;1294;60992;-49
2024/01/31 00:47:49;;;;;;;12.70;6.20;;;;;;;12.01;56.13;102794.34;102787;1294;61062;-53
2024/01/31 00:50:14;;;;;;;12.70;6.40;;;;;;;12.00;56.10;102785.56;102902;1292;61369;-52
2024/01/31 00:52:41;;;;;;;12.80;6.20;;;;;;;12.00;56.08;102784.73;102989;1289;61208;-49
2024/01/31 00:55:07;;;;;;;15.30;6.10;;;;;;;12.00;56.06;102782.44;103116;1285;203108;-51
2024/01/31 00:57:32;;;;;;;15.50;6.80;;;;;;;11.99;56.05;102779.87;102634;1294;61106;-48
2024/01/31 00:59:58;;;;;;;14.20;6.70;;;;;;;11.98;56.03;102780.45;103124;1285;61233;-49
2024/01/31 01:02:23;;;;;;;12.10;6.50;;;;;;;11.97;56.00;102780.98;103228;1285;61173;-47
2024/01/31 01:04:49;;;;;;;14.30;6.80;;;;;;;11.96;56.01;102780.21;102742;1285;61416;-52
2024/01/31 01:07:14;;;;;;;12.70;6.20;;;;;;;11.96;55.93;102782.25;102856;1288;73140;-52
2024/01/31 01:09:40;;;;;;;12.30;6.30;;;;;;;11.95;56.00;102781.85;102983;1291;61307;-49
2024/01/31 01:12:06;;;;;;;11.80;6.00;;;;;;;11.94;55.98;102781.96;103010;1285;61221;-49
2024/01/31 01:14:31;;;;;;;13.40;6.60;;;;;;;11.93;56.03;102780.27;102862;1285;60567;-51
2024/01/31 01:16:57;;;;;;;10.80;5.80;;;;;;;11.92;56.01;102775.70;103160;1286;61211;-49
2024/01/31 01:19:22;;;;;;;13.30;6.20;;;;;;;11.92;56.02;102771.09;102748;1285;61359;-48
2024/01/31 01:21:48;;;;;;;11.00;6.00;;;;;;;11.91;55.96;102765.27;103018;1286;61247;-51
2024/01/31 01:24:13;;;;;;;14.00;6.10;;;;;;;11.90;55.97;102763.98;103076;1285;61236;-52
2024/01/31 01:26:40;;;;;;;13.30;6.50;;;;;;;11.90;55.95;102758.05;103099;1286;61205;-51
2024/01/31 01:29:06;;;;;;;14.90;6.50;;;;;;;11.90;56.02;102752.97;103197;1288;61439;-49
2024/01/31 01:31:31;;;;;;;14.80;6.00;;;;;;;11.89;55.93;102744.89;102774;1288;61950;-51
2024/01/31 01:33:59;;;;;;;12.50;6.50;;;;;;;11.88;55.95;102745.20;103245;1285;61535;-51
2024/01/31 01:36:25;;;;;;;14.70;6.70;;;;;;;11.87;55.96;102746.59;103206;1285;61902;-49
2024/01/31 01:38:50;;;;;;;11.20;6.10;;;;;;;11.86;56.01;102752.67;103148;1291;61154;-50
2024/01/31 01:41:16;;;;;;;12.60;6.40;;;;;;;11.85;55.91;102752.36;103337;1285;61148;-50
2024/01/31 01:43:42;;;;;;;11.10;5.70;;;;;;;11.86;55.87;102747.67;103157;1289;61216;-51
2024/01/31 01:46:18;;;;;;;10.00;5.70;;;;;;;11.85;55.90;102741.23;103004;1288;61219;-50
2024/01/31 01:48:43;;;;;;;11.60;5.80;;;;;;;11.85;55.92;102739.09;103189;1289;60544;-49
2024/01/31 01:51:10;;;;;;;11.90;5.80;;;;;;;11.85;55.99;102740.34;103134;1291;61200;-49
2024/01/31 01:53:36;;;;;;;11.30;5.70;;;;;;;11.85;55.96;102744.67;102846;1288;61171;-52
2024/01/31 01:56:04;;;;;;;10.40;5.70;;;;;;;11.85;55.92;102741.28;102824;1288;61237;-51
2024/01/31 01:58:32;;;;;;;12.20;6.30;;;;;;;11.84;55.95;102740.13;102912;1288;60422;-50
2024/01/31 02:01:02;;;;;;;12.10;5.80;;;;;;;11.83;55.94;102733.85;103063;1286;61138;-52
2024/01/31 02:03:32;;;;;;;12.30;5.80;;;;;;;11.83;55.88;102734.65;102948;1291;73374;-50
2024/01/31 02:05:59;;;;;;;10.50;5.60;;;;;;;11.83;55.88;102737.94;103117;1288;73795;-52
2024/01/31 02:08:26;;;;;;;13.60;6.10;;;;;;;11.82;55.92;102731.83;103181;1288;73998;-49
2024/01/31 02:10:52;;;;;;;11.50;6.10;;;;;;;11.82;55.91;102729.37;103010;1291;61245;-49
2024/01/31 02:13:17;;;;;;;12.90;5.90;;;;;;;11.81;55.85;102730.91;102959;1288;61176;-50
2024/01/31 02:15:57;;;;;;;10.90;6.20;;;;;;;11.81;55.87;102727.88;102938;1291;61299;-48
2024/01/31 02:18:25;;;;;;;12.60;6.10;;;;;;;11.81;55.89;102723.06;102667;1287;74068;-51
2024/01/31 02:20:51;;;;;;;12.40;6.00;;;;;;;11.80;55.93;102725.14;102845;1286;73768;-50
2024/01/31 02:23:16;;;;;;;13.20;6.50;;;;;;;11.80;55.90;102725.69;103038;1286;61944;-51
2024/01/31 02:25:59;;;;;;;10.00;5.30;;;;;;;11.82;55.93;102721.11;102495;1293;600277;-52
2024/01/31 02:28:25;;;;;;;10.80;5.80;;;;;;;11.80;55.89;102723.35;102431;1298;61264;-53
2024/01/31 02:30:51;;;;;;;9.70;5.40;;;;;;;11.80;55.79;102720.70;102517;1292;61171;-51
2024/01/31 02:33:33;;;;;;;12.90;6.30;;;;;;;11.82;55.73;102720.98;102574;1293;600985;-51
2024/01/31 02:35:58;;;;;;;10.40;5.60;;;;;;;11.80;55.77;102723.57;102523;1293;61155;-51
2024/01/31 02:38:24;;;;;;;10.50;5.60;;;;;;;11.79;55.78;102720.91;106167;1291;58980;-54
2024/01/31 02:40:49;;;;;;;11.70;5.80;;;;;;;11.80;55.70;102718.08;106255;1292;58127;-50
2024/01/31 02:43:15;;;;;;;12.40;5.60;;;;;;;11.81;55.79;102720.60;106215;1291;58311;-52
2024/01/31 02:45:40;;;;;;;11.10;5.60;;;;;;;11.86;55.78;102724.27;106140;1291;58151;-50
2024/01/31 02:48:08;;;;;;;11.70;5.90;;;;;;;11.88;55.72;102716.74;106225;1289;188150;-51
2024/01/31 02:50:33;;;;;;;11.60;5.70;;;;;;;11.91;55.59;102720.08;106386;1289;58212;-50
2024/01/31 02:53:00;;;;;;;12.10;5.80;;;;;;;11.94;55.54;102715.70;106355;1289;58297;-51
2024/01/31 02:55:25;;;;;;;8.50;5.10;;;;;;;11.97;55.43;102713.48;106371;1289;58829;-50
2024/01/31 02:57:51;;;;;;;11.00;5.40;;;;;;;11.99;55.41;102719.78;106317;1289;58064;-51
2024/01/31 03:00:16;;;;;;;11.20;5.80;;;;;;;12.01;55.26;102718.20;106453;1289;58108;-54
2024/01/31 03:02:43;;;;;;;10.70;6.10;;;;;;;12.04;55.43;102720.39;106307;1288;74505;-54
2024/01/31 03:05:09;;;;;;;12.10;5.90;;;;;;;12.06;55.27;102715.92;106639;1288;58013;-50
2024/01/31 03:07:35;;;;;;;10.70;5.30;;;;;;;12.08;55.20;102717.98;106618;1288;58285;-53
2024/01/31 03:10:01;;;;;;;11.20;5.50;;;;;;;12.10;55.08;102713.25;106333;1289;59078;-50
2024/01/31 03:12:26;;;;;;;9.80;5.40;;;;;;;12.11;55.04;102709.15;106672;1289;58626;-53
2024/01/31 03:14:51;;;;;;;11.30;5.50;;;;;;;12.12;55.13;102698.17;106302;1289;59245;-52
2024/01/31 03:17:17;;;;;;;13.00;5.80;;;;;;;12.14;54.97;102704.94;106649;1289;58890;-50
2024/01/31 03:19:42;;;;;;;10.90;5.40;;;;;;;12.15;54.89;102705.73;106678;1287;61385;-51
2024/01/31 03:22:09;;;;;;;9.30;5.20;;;;;;;12.15;54.81;102702.19;106685;1289;58130;-50
2024/01/31 03:24:34;;;;;;;10.40;5.30;;;;;;;12.17;54.83;102710.66;106581;1289;58210;-53
2024/01/31 03:27:00;;;;;;;13.10;6.10;;;;;;;12.17;54.76;102709.66;106680;1288;58919;-53
2024/01/31 03:29:26;;;;;;;12.50;5.60;;;;;;;12.18;54.75;102707.95;106475;1288;58058;-52
2024/01/31 03:31:51;;;;;;;9.40;5.10;;;;;;;12.18;54.61;102716.39;106672;1288;58843;-50
2024/01/31 03:34:17;;;;;;;10.70;5.40;;;;;;;12.19;54.59;102719.35;106506;1289;58156;-54
2024/01/31 03:36:43;;;;;;;8.90;5.10;;;;;;;12.19;54.58;102725.83;106318;1289;58380;-51
2024/01/31 03:39:09;;;;;;;10.80;4.80;;;;;;;12.20;54.57;102722.28;106401;1289;58111;-50
2024/01/31 03:41:35;;;;;;;9.90;5.40;;;;;;;12.20;54.52;102715.42;106343;1289;58858;-50
2024/01/31 03:44:00;;;;;;;11.00;5.40;;;;;;;12.20;54.43;102707.69;106317;1289;59030;-52
2024/01/31 03:46:26;;;;;;;12.70;5.90;;;;;;;12.20;54.45;102702.98;106458;1289;58847;-48
2024/01/31 03:48:51;;;;;;;10.60;5.50;;;;;;;12.20;54.49;102708.73;106401;1289;58920;-48
2024/01/31 03:51:21;;;;;;;11.40;5.80;;;;;;;12.21;54.40;102714.92;106208;1288;58786;-49
2024/01/31 03:53:47;;;;;;;12.80;5.80;;;;;;;12.20;54.36;102712.29;106208;1288;72764;-51
2024/01/31 03:56:14;;;;;;;10.40;5.30;;;;;;;12.20;54.25;102703.65;106432;1288;73454;-49
2024/01/31 03:58:40;;;;;;;11.20;5.80;;;;;;;12.20;54.28;102706.52;106379;1289;58371;-49
2024/01/31 04:01:06;;;;;;;10.20;5.30;;;;;;;12.20;54.21;102702.20;106391;1288;58741;-50
2024/01/31 04:03:31;;;;;;;12.80;6.40;;;;;;;12.21;54.27;102699.83;106464;1288;58694;-50
2024/01/31 04:05:57;;;;;;;11.00;5.20;;;;;;;12.21;54.19;102696.59;106237;1289;58381;-52
2024/01/31 04:08:22;;;;;;;11.30;5.60;;;;;;;12.20;54.26;102693.87;106410;1288;58918;-51
2024/01/31 04:10:48;;;;;;;10.70;5.30;;;;;;;12.20;54.17;102689.42;106407;1289;58231;-54
2024/01/31 04:13:13;;;;;;;11.60;6.00;;;;;;;12.20;54.13;102693.92;106414;1288;58876;-49
2024/01/31 04:15:39;;;;;;;11.50;5.30;;;;;;;12.20;54.22;102695.16;106250;1289;58198;-50
2024/01/31 04:18:07;;;;;;;12.40;5.60;;;;;;;12.20;54.08;102696.61;106352;1289;58501;-53
2024/01/31 04:20:34;;;;;;;8.90;5.10;;;;;;;12.20;54.06;102697.90;106375;1288;58159;-50
2024/01/31 04:23:00;;;;;;;11.00;5.60;;;;;;;12.20;54.08;102698.49;106396;1289;61041;-51
2024/01/31 04:25:25;;;;;;;9.90;5.10;;;;;;;12.19;54.08;102700.58;106380;1288;58392;-49
2024/01/31 04:27:51;;;;;;;10.50;4.90;;;;;;;12.19;54.03;102700.49;106408;1288;58851;-53
2024/01/31 04:30:18;;;;;;;10.90;5.20;;;;;;;12.19;53.98;102700.38;106401;1289;59120;-50
2024/01/31 04:32:43;;;;;;;10.50;5.20;;;;;;;12.19;54.07;102701.98;106328;1288;58239;-50
2024/01/31 04:35:10;;;;;;;10.00;4.90;;;;;;;12.19;54.03;102702.95;106203;1289;58183;-50
2024/01/31 04:37:35;;;;;;;11.50;5.80;;;;;;;12.19;54.04;102699.88;106468;1289;58073;-53
2024/01/31 04:40:01;;;;;;;10.60;5.10;;;;;;;12.19;54.08;102698.46;106394;1289;75232;-50
2024/01/31 04:42:26;;;;;;;9.70;4.90;;;;;;;12.19;53.96;102694.36;106411;1288;58936;-51
2024/01/31 04:44:52;;;;;;;10.40;5.10;;;;;;;12.17;53.99;102689.45;106427;1289;58977;-50
2024/01/31 04:47:17;;;;;;;11.30;5.40;;;;;;;12.18;54.04;102684.72;106431;1288;58888;-49
2024/01/31 04:49:43;;;;;;;10.00;5.20;;;;;;;12.18;53.92;102678.98;106534;1288;58901;-49
2024/01/31 04:52:08;;;;;;;10.10;5.10;;;;;;;12.17;53.99;102677.42;106396;1289;59074;-49
2024/01/31 04:54:39;;;;;;;10.20;5.20;;;;;;;12.17;53.96;102677.09;106332;1288;59177;-53
2024/01/31 04:57:05;;;;;;;10.70;5.20;;;;;;;12.17;53.98;102675.47;106430;1289;59427;-53
2024/01/31 04:59:31;;;;;;;11.70;5.60;;;;;;;12.17;53.96;102672.66;106420;1288;58784;-51
2024/01/31 05:01:56;;;;;;;11.20;5.30;;;;;;;12.16;53.94;102673.28;106474;1289;59030;-51
2024/01/31 05:04:22;;;;;;;11.90;5.40;;;;;;;12.16;53.87;102675.45;106429;1289;58778;-50
2024/01/31 05:06:47;;;;;;;9.90;5.10;;;;;;;12.15;53.87;102677.33;106438;1289;58878;-49
2024/01/31 05:09:13;;;;;;;10.50;5.30;;;;;;;12.15;53.91;102676.77;106482;1289;58934;-51
2024/01/31 05:11:38;;;;;;;11.10;5.30;;;;;;;12.15;53.91;102671.21;106479;1288;58759;-49
2024/01/31 05:14:03;;;;;;;11.30;5.40;;;;;;;12.15;53.89;102671.81;106434;1288;58833;-50
2024/01/31 05:16:29;;;;;;;9.90;4.90;;;;;;;12.15;53.84;102681.25;106345;1289;58922;-51
2024/01/31 05:18:54;;;;;;;10.60;5.60;;;;;;;12.14;53.87;102683.11;106476;1288;58919;-50
2024/01/31 05:21:20;;;;;;;10.40;4.80;;;;;;;12.14;53.80;102678.90;106423;1291;58978;-49
2024/01/31 05:23:45;;;;;;;9.90;5.20;;;;;;;12.14;53.79;102681.98;106416;1289;58750;-52
2024/01/31 05:26:11;;;;;;;9.70;5.10;;;;;;;12.14;53.82;102681.15;106407;1289;59225;-52
2024/01/31 05:28:37;;;;;;;11.40;5.60;;;;;;;12.14;53.75;102678.13;106457;1289;58896;-51
2024/01/31 05:31:06;;;;;;;9.10;5.10;;;;;;;12.13;53.74;102678.55;106445;1288;58309;-49
2024/01/31 05:33:31;;;;;;;10.20;5.10;;;;;;;12.14;53.77;102678.12;106523;1288;58901;-52
2024/01/31 05:36:01;;;;;;;8.50;4.70;;;;;;;12.13;53.75;102678.00;106244;1290;58979;-50
2024/01/31 05:38:26;;;;;;;10.40;5.50;;;;;;;12.13;53.77;102677.25;106474;1289;61247;-53
2024/01/31 05:40:52;;;;;;;9.40;5.00;;;;;;;12.13;53.75;102672.85;106562;1288;58094;-52
2024/01/31 05:43:18;;;;;;;10.30;5.40;;;;;;;12.13;53.75;102680.91;106699;1289;58939;-50
2024/01/31 05:45:43;;;;;;;10.90;5.20;;;;;;;12.13;53.72;102682.41;106648;1287;58483;-51
2024/01/31 05:48:09;;;;;;;9.10;4.90;;;;;;;12.12;53.73;102684.79;106227;1288;58349;-50
2024/01/31 05:50:34;;;;;;;10.20;5.40;;;;;;;12.13;53.70;102688.58;106557;1289;58151;-50
2024/01/31 05:53:00;;;;;;;9.60;5.00;;;;;;;12.13;53.69;102686.73;106544;1289;58916;-50
2024/01/31 05:55:25;;;;;;;10.80;5.50;;;;;;;12.12;53.70;102684.66;106591;1289;58134;-49
2024/01/31 05:57:51;;;;;;;10.70;4.90;;;;;;;12.12;53.68;102685.20;106336;1289;58347;-52
2024/01/31 06:00:17;;;;;;;11.60;5.80;;;;;;;12.12;53.66;102681.79;106508;1289;58945;-50
2024/01/31 06:02:43;;;;;;;9.70;5.20;;;;;;;12.12;53.67;102680.64;106590;1289;58819;-50
2024/01/31 06:05:08;;;;;;;9.80;4.90;;;;;;;12.13;53.70;102682.58;106609;1287;58790;-50
2024/01/31 06:07:34;;;;;;;10.50;5.30;;;;;;;12.13;53.64;102681.67;106239;1289;58901;-51
2024/01/31 06:09:59;;;;;;;9.80;4.90;;;;;;;12.13;53.55;102683.25;106563;1288;59012;-53
2024/01/31 06:12:25;;;;;;;9.30;4.90;;;;;;;12.13;53.54;102684.15;106596;1288;58346;-53
2024/01/31 06:14:50;;;;;;;10.10;4.70;;;;;;;12.13;53.59;102684.37;106672;1287;58110;-50
2024/01/31 06:17:17;;;;;;;9.90;4.80;;;;;;;12.12;53.58;102682.30;106352;1290;58320;-51
2024/01/31 06:19:43;;;;;;;11.20;5.50;;;;;;;12.13;53.54;102677.39;106414;1289;59695;-48
2024/01/31 06:22:08;;;;;;;9.80;4.90;;;;;;;12.12;53.54;102679.59;106584;1289;58710;-51
2024/01/31 06:24:34;;;;;;;9.50;4.90;;;;;;;12.13;53.46;102685.29;106565;1289;58830;-48
2024/01/31 06:27:00;;;;;;;11.50;5.60;;;;;;;12.12;53.50;102682.80;106586;1289;59213;-49
2024/01/31 06:29:25;;;;;;;8.90;4.50;;;;;;;12.14;53.49;102679.95;106538;1289;58913;-52
2024/01/31 06:31:52;;;;;;;10.40;5.40;;;;;;;12.13;53.47;102677.30;106445;1290;59051;-49
2024/01/31 06:34:18;;;;;;;9.40;5.00;;;;;;;12.13;53.38;102678.05;106473;1289;73832;-51
2024/01/31 06:36:44;;;;;;;9.60;5.20;;;;;;;12.12;53.50;102677.63;106611;1289;58970;-52
2024/01/31 06:39:10;;;;;;;9.60;5.00;;;;;;;12.13;53.53;102679.30;106535;1288;59236;-51
2024/01/31 06:41:37;;;;;;;9.30;5.00;;;;;;;12.13;53.55;102672.22;106566;1288;58887;-52
2024/01/31 06:44:03;;;;;;;12.10;5.40;;;;;;;12.14;53.46;102673.54;106592;1288;58846;-50
2024/01/31 06:46:29;;;;;;;8.80;4.80;;;;;;;12.15;53.50;102671.67;106553;1288;58951;-49
2024/01/31 06:48:55;;;;;;;9.90;5.10;;;;;;;12.15;53.40;102666.80;106576;1288;58919;-52
2024/01/31 06:51:20;;;;;;;10.10;5.00;;;;;;;12.16;53.38;102668.80;106569;1288;58799;-50
2024/01/31 06:53:46;;;;;;;10.20;5.00;;;;;;;12.17;53.34;102666.46;106330;1289;58266;-52
2024/01/31 06:56:16;;;;;;;9.80;5.30;;;;;;;12.18;53.42;102665.53;106633;1288;58885;-49
2024/01/31 06:58:45;;;;;;;10.00;4.80;;;;;;;12.20;53.44;102667.31;106745;1288;74466;-50
2024/01/31 07:01:14;;;;;;;8.70;4.60;;;;;;;12.22;53.44;102665.76;106521;1288;73439;-50
2024/01/31 07:03:43;;;;;;;8.60;4.90;;;;;;;12.23;53.48;102666.44;106637;1288;61203;-50
2024/01/31 07:06:11;;;;;;;10.20;5.20;;;;;;;12.24;53.49;102672.11;106330;1288;61187;-52
2024/01/31 07:08:36;;;;;;;9.60;5.30;;;;;;;12.25;53.40;102674.84;106470;1288;75013;-50
2024/01/31 07:11:02;;;;;;;10.50;5.10;;;;;;;12.27;53.39;102674.65;106293;1288;58409;-52
2024/01/31 07:13:27;;;;;;;11.90;5.30;;;;;;;12.30;53.49;102664.00;106335;1289;59082;-51
2024/01/31 07:15:53;;;;;;;10.40;4.80;;;;;;;12.31;53.39;102659.29;106426;1290;58397;-50
2024/01/31 07:21:42;;;;;;;10.10;5.20;;;;;;;12.36;53.44;102652.70;103476;1288;599873;-51
2024/01/31 07:24:07;;;;;;;10.90;5.00;;;;;;;12.34;53.41;102650.26;103432;1291;61235;-52
